sensor_id;sensor_type;location;lat;lon;timestamp;P1;durP1;ratioP1;P2;durP2;ratioP2
42092;SDS011;28974;50.316;18.960;2023-03-23T00:03:35;57.92;;;27.70;;
42092;SDS011;28974;50.316;18.960;2023-03-23T00:15:35;72.70;;;28.45;;
42092;SDS011;28974;50.316;18.960;2023-03-23T00:27:41;58.42;;;26.00;;
42092;SDS011;28974;50.316;18.960;2023-03-23T00:39:44;48.85;;;26.00;;
42092;SDS011;28974;50.316;18.960;2023-03-23T00:51:46;64.85;;;28.27;;
42092;SDS011;28974;50.316;18.960;2023-03-23T01:03:47;46.70;;;22.65;;
42092;SDS011;28974;50.316;18.960;2023-03-23T01:15:47;47.22;;;21.55;;
42092;SDS011;28974;50.316;18.960;2023-03-23T01:27:48;51.28;;;21.38;;
42092;SDS011;28974;50.316;18.960;2023-03-23T01:39:48;41.92;;;19.85;;
42092;SDS011;28974;50.316;18.960;2023-03-23T01:51:51;40.35;;;20.23;;
42092;SDS011;28974;50.316;18.960;2023-03-23T02:03:52;31.45;;;17.10;;
42092;SDS011;28974;50.316;18.960;2023-03-23T02:16:05;42.53;;;20.50;;
42092;SDS011;28974;50.316;18.960;2023-03-23T02:40:11;38.40;;;18.15;;
42092;SDS011;28974;50.316;18.960;2023-03-23T02:52:15;45.10;;;18.33;;
42092;SDS011;28974;50.316;18.960;2023-03-23T03:04:18;39.80;;;17.33;;
42092;SDS011;28974;50.316;18.960;2023-03-23T03:16:24;36.50;;;17.60;;
42092;SDS011;28974;50.316;18.960;2023-03-23T03:28:28;38.15;;;19.42;;
42092;SDS011;28974;50.316;18.960;2023-03-23T03:40:29;37.90;;;17.73;;
42092;SDS011;28974;50.316;18.960;2023-03-23T03:52:29;29.50;;;15.05;;
42092;SDS011;28974;50.316;18.960;2023-03-23T04:04:30;37.45;;;15.35;;
42092;SDS011;28974;50.316;18.960;2023-03-23T04:16:30;32.03;;;14.45;;
42092;SDS011;28974;50.316;18.960;2023-03-23T04:28:32;36.83;;;14.93;;
42092;SDS011;28974;50.316;18.960;2023-03-23T04:40:52;33.45;;;14.95;;
42092;SDS011;28974;50.316;18.960;2023-03-23T04:53:05;51.42;;;19.75;;
42092;SDS011;28974;50.316;18.960;2023-03-23T05:05:09;37.28;;;15.45;;
42092;SDS011;28974;50.316;18.960;2023-03-23T05:17:11;34.40;;;14.70;;
42092;SDS011;28974;50.316;18.960;2023-03-23T05:29:13;29.77;;;13.82;;
42092;SDS011;28974;50.316;18.960;2023-03-23T05:41:22;39.20;;;13.93;;
42092;SDS011;28974;50.316;18.960;2023-03-23T05:53:24;36.60;;;14.13;;
42092;SDS011;28974;50.316;18.960;2023-03-23T06:05:27;36.42;;;12.73;;
42092;SDS011;28974;50.316;18.960;2023-03-23T06:17:30;36.92;;;13.68;;
42092;SDS011;28974;50.316;18.960;2023-03-23T06:29:39;32.90;;;12.38;;
42092;SDS011;28974;50.316;18.960;2023-03-23T06:54:22;29.85;;;11.45;;
42092;SDS011;28974;50.316;18.960;2023-03-23T07:19:05;26.92;;;11.57;;
42092;SDS011;28974;50.316;18.960;2023-03-23T07:31:13;26.23;;;10.50;;
42092;SDS011;28974;50.316;18.960;2023-03-23T07:43:20;31.85;;;11.43;;
42092;SDS011;28974;50.316;18.960;2023-03-23T07:55:30;25.55;;;11.35;;
42092;SDS011;28974;50.316;18.960;2023-03-23T08:07:49;18.42;;;9.18;;
42092;SDS011;28974;50.316;18.960;2023-03-23T08:20:16;19.33;;;9.57;;
42092;SDS011;28974;50.316;18.960;2023-03-23T08:32:43;18.20;;;8.10;;
42092;SDS011;28974;50.316;18.960;2023-03-23T08:45:05;21.20;;;9.80;;
42092;SDS011;28974;50.316;18.960;2023-03-23T08:57:37;29.95;;;10.18;;
42092;SDS011;28974;50.316;18.960;2023-03-23T09:09:47;33.60;;;12.10;;
42092;SDS011;28974;50.316;18.960;2023-03-23T09:21:48;16.70;;;8.07;;
42092;SDS011;28974;50.316;18.960;2023-03-23T09:33:48;29.50;;;8.75;;
42092;SDS011;28974;50.316;18.960;2023-03-23T09:58:01;24.23;;;9.52;;
42092;SDS011;28974;50.316;18.960;2023-03-23T10:10:03;12.13;;;5.83;;
42092;SDS011;28974;50.316;18.960;2023-03-23T10:22:14;17.77;;;5.10;;
42092;SDS011;28974;50.316;18.960;2023-03-23T10:34:20;27.70;;;5.53;;
42092;SDS011;28974;50.316;18.960;2023-03-23T10:58:27;21.27;;;6.82;;
42092;SDS011;28974;50.316;18.960;2023-03-23T11:10:39;32.47;;;7.07;;
42092;SDS011;28974;50.316;18.960;2023-03-23T11:22:42;19.35;;;5.78;;
42092;SDS011;28974;50.316;18.960;2023-03-23T11:34:43;17.95;;;7.18;;
42092;SDS011;28974;50.316;18.960;2023-03-23T11:59:10;14.50;;;6.70;;
42092;SDS011;28974;50.316;18.960;2023-03-23T12:11:18;15.65;;;6.47;;
42092;SDS011;28974;50.316;18.960;2023-03-23T12:47:54;13.07;;;6.72;;
42092;SDS011;28974;50.316;18.960;2023-03-23T13:00:08;15.63;;;7.85;;
42092;SDS011;28974;50.316;18.960;2023-03-23T13:12:13;16.77;;;8.52;;
42092;SDS011;28974;50.316;18.960;2023-03-23T13:24:15;12.13;;;6.65;;
42092;SDS011;28974;50.316;18.960;2023-03-23T13:36:25;22.42;;;6.68;;
42092;SDS011;28974;50.316;18.960;2023-03-23T13:48:26;17.20;;;7.38;;
42092;SDS011;28974;50.316;18.960;2023-03-23T14:12:27;18.20;;;6.72;;
42092;SDS011;28974;50.316;18.960;2023-03-23T14:24:30;11.40;;;6.32;;
42092;SDS011;28974;50.316;18.960;2023-03-23T14:36:31;16.52;;;5.93;;
42092;SDS011;28974;50.316;18.960;2023-03-23T14:48:34;19.40;;;9.00;;
42092;SDS011;28974;50.316;18.960;2023-03-23T15:00:39;25.80;;;8.50;;
42092;SDS011;28974;50.316;18.960;2023-03-23T15:12:42;24.00;;;9.75;;
42092;SDS011;28974;50.316;18.960;2023-03-23T15:24:43;38.80;;;8.10;;
42092;SDS011;28974;50.316;18.960;2023-03-23T15:36:44;25.00;;;8.88;;
42092;SDS011;28974;50.316;18.960;2023-03-23T15:48:49;30.15;;;11.30;;
42092;SDS011;28974;50.316;18.960;2023-03-23T16:00:50;20.05;;;8.68;;
42092;SDS011;28974;50.316;18.960;2023-03-23T16:12:51;35.47;;;14.63;;
42092;SDS011;28974;50.316;18.960;2023-03-23T16:24:52;21.30;;;8.50;;
42092;SDS011;28974;50.316;18.960;2023-03-23T16:36:52;19.88;;;9.15;;
42092;SDS011;28974;50.316;18.960;2023-03-23T16:48:52;22.95;;;10.10;;
42092;SDS011;28974;50.316;18.960;2023-03-23T17:00:53;27.88;;;12.23;;
42092;SDS011;28974;50.316;18.960;2023-03-23T17:12:54;36.35;;;13.02;;
42092;SDS011;28974;50.316;18.960;2023-03-23T17:24:54;34.03;;;15.57;;
42092;SDS011;28974;50.316;18.960;2023-03-23T17:36:56;31.10;;;16.15;;
42092;SDS011;28974;50.316;18.960;2023-03-23T17:48:56;46.75;;;19.40;;
42092;SDS011;28974;50.316;18.960;2023-03-23T18:00:57;55.70;;;24.10;;
42092;SDS011;28974;50.316;18.960;2023-03-23T18:12:57;61.45;;;27.58;;
42092;SDS011;28974;50.316;18.960;2023-03-23T18:24:58;49.97;;;20.35;;
42092;SDS011;28974;50.316;18.960;2023-03-23T18:36:58;71.90;;;23.40;;
42092;SDS011;28974;50.316;18.960;2023-03-23T18:48:59;55.25;;;23.98;;
42092;SDS011;28974;50.316;18.960;2023-03-23T19:01:03;55.85;;;24.80;;
42092;SDS011;28974;50.316;18.960;2023-03-23T19:13:04;65.45;;;27.08;;
42092;SDS011;28974;50.316;18.960;2023-03-23T19:25:05;49.15;;;22.90;;
42092;SDS011;28974;50.316;18.960;2023-03-23T19:37:06;69.70;;;28.27;;
42092;SDS011;28974;50.316;18.960;2023-03-23T19:49:07;53.83;;;23.73;;
42092;SDS011;28974;50.316;18.960;2023-03-23T20:01:07;79.30;;;28.90;;
42092;SDS011;28974;50.316;18.960;2023-03-23T20:13:09;63.30;;;26.63;;
42092;SDS011;28974;50.316;18.960;2023-03-23T20:25:10;58.30;;;26.00;;
42092;SDS011;28974;50.316;18.960;2023-03-23T20:37:10;57.30;;;24.53;;
42092;SDS011;28974;50.316;18.960;2023-03-23T20:49:15;73.55;;;29.48;;
42092;SDS011;28974;50.316;18.960;2023-03-23T21:01:16;63.75;;;27.98;;
42092;SDS011;28974;50.316;18.960;2023-03-23T21:13:16;80.70;;;30.38;;
42092;SDS011;28974;50.316;18.960;2023-03-23T21:25:17;45.40;;;21.60;;
42092;SDS011;28974;50.316;18.960;2023-03-23T21:37:21;44.10;;;16.65;;
42092;SDS011;28974;50.316;18.960;2023-03-23T21:49:21;38.20;;;13.23;;
42092;SDS011;28974;50.316;18.960;2023-03-23T22:01:22;42.60;;;15.50;;
42092;SDS011;28974;50.316;18.960;2023-03-23T22:13:22;30.90;;;12.80;;
42092;SDS011;28974;50.316;18.960;2023-03-23T22:25:23;35.30;;;13.07;;
42092;SDS011;28974;50.316;18.960;2023-03-23T22:37:23;38.78;;;12.07;;
42092;SDS011;28974;50.316;18.960;2023-03-23T22:49:24;34.90;;;11.63;;
42092;SDS011;28974;50.316;18.960;2023-03-23T23:01:25;26.85;;;11.75;;
42092;SDS011;28974;50.316;18.960;2023-03-23T23:13:26;22.83;;;9.38;;
42092;SDS011;28974;50.316;18.960;2023-03-23T23:25:27;23.85;;;9.60;;
42092;SDS011;28974;50.316;18.960;2023-03-23T23:37:28;18.77;;;9.88;;
42092;SDS011;28974;50.316;18.960;2023-03-23T23:49:28;27.48;;;10.10;;
